M I D A S
Marine Information and Data Acquisition System
Tripno 2295 of the Zeeleeuw from 2012-04-24 10:33:03 to 2012-04-24 16:19:00
Back to CruiseResearch ActivitiesStationsMapUnderway DataData graphs

EquipmentUnitsComment
TimeDGPSUTC
LatitudeDGPSDM.mWGS84
LongitudeDGPSDM.mWGS84
HeadingGyrodeg 
SOGDGPSknotsSpeed over ground
COGDGPSdegCourse over ground
DepthEcho soundermeters200 kHz
Missing or incorrect values are displayed as -999
Navigation data collected by the RV Zeeleeuw from 2012-04-24 10:14:09 to 2012-04-24 16:22:50
                                                                                    Next 1000 lines
Time Latitude Longitude Heading SOG COG Depth
2012-04-24 10:14:19 51°13.636 2°56.019 126.4 0.2 190 -999
2012-04-24 10:14:25 51°13.636 2°56.019 127.8 -999 238 7.5
2012-04-24 10:14:29 51°13.636 2°56.018 128.3 0.1 255 7.6
2012-04-24 10:14:34 51°13.636 2°56.019 128.8 -999 93 7.6
2012-04-24 10:14:39 51°13.636 2°56.019 129.1 -999 184 -999
2012-04-24 10:14:45 51°13.636 2°56.019 129.1 0.1 24 -999
2012-04-24 10:14:49 51°13.636 2°56.019 129.1 -999 45 5.7
2012-04-24 10:14:54 51°13.636 2°56.019 128.8 -999 139 7.8
2012-04-24 10:14:59 51°13.636 2°56.019 128.7 -999 234 -999
2012-04-24 10:15:05 51°13.636 2°56.019 128.7 0.1 201 -999
2012-04-24 10:15:10 51°13.636 2°56.019 128.8 -999 186 7.6
2012-04-24 10:15:14 51°13.636 2°56.018 128.9 -999 277 -999
2012-04-24 10:15:19 51°13.636 2°56.018 129.1 -999 130 7.6
2012-04-24 10:15:24 51°13.636 2°56.018 129.2 -999 106 7.8
2012-04-24 10:15:30 51°13.636 2°56.018 129.2 -999 100 7.6
2012-04-24 10:15:34 51°13.636 2°56.018 129.2 -999 63 -999
2012-04-24 10:15:39 51°13.636 2°56.018 129 -999 86 -999
2012-04-24 10:15:44 51°13.636 2°56.019 128.8 -999 127 7.6
2012-04-24 10:15:49 51°13.636 2°56.019 128.7 -999 160 -999
2012-04-24 10:15:54 51°13.636 2°56.019 128.7 -999 189 -999
2012-04-24 10:15:59 51°13.636 2°56.018 128.7 -999 252 -999
2012-04-24 10:16:04 51°13.636 2°56.018 128.7 -999 226 -999
2012-04-24 10:16:10 51°13.636 2°56.018 128.7 -999 150 -999
2012-04-24 10:16:15 51°13.636 2°56.018 128.8 -999 92 -999
2012-04-24 10:16:19 51°13.636 2°56.018 128.8 -999 136 -999
2012-04-24 10:16:25 51°13.636 2°56.018 128.8 -999 122 -999
2012-04-24 10:16:30 51°13.637 2°56.018 128.8 -999 87 -999
2012-04-24 10:16:35 51°13.637 2°56.018 128.8 -999 299 -999
2012-04-24 10:16:40 51°13.637 2°56.018 128.8 -999 275 -999
2012-04-24 10:16:45 51°13.637 2°56.018 128.8 -999 202 -999
2012-04-24 10:16:50 51°13.637 2°56.018 128.8 -999 189 -999
2012-04-24 10:16:55 51°13.637 2°56.018 128.8 -999 15 -999
2012-04-24 10:16:59 51°13.637 2°56.018 128.8 -999 178 -999
2012-04-24 10:17:05 51°13.637 2°56.018 128.8 -999 192 -999
2012-04-24 10:17:10 51°13.637 2°56.018 128.8 -999 33 -999
2012-04-24 10:17:15 51°13.637 2°56.018 128.8 -999 255 -999
2012-04-24 10:17:19 51°13.637 2°56.018 128.7 -999 227 -999
2012-04-24 10:17:25 51°13.637 2°56.018 128.7 -999 267 -999
2012-04-24 10:17:30 51°13.637 2°56.018 128.7 -999 204 -999
2012-04-24 10:17:35 51°13.637 2°56.018 128.7 -999 176 -999
2012-04-24 10:17:39 51°13.637 2°56.018 128.7 -999 192 -999
2012-04-24 10:17:45 51°13.637 2°56.018 128.7 -999 276 -999
2012-04-24 10:17:50 51°13.637 2°56.018 128.8 -999 77 -999
2012-04-24 10:17:55 51°13.637 2°56.018 128.8 -999 110 -999
2012-04-24 10:17:59 51°13.637 2°56.018 128.8 -999 93 -999
2012-04-24 10:18:05 51°13.637 2°56.018 128.8 -999 41 -999
2012-04-24 10:18:10 51°13.636 2°56.018 128.8 -999 275 -999
2012-04-24 10:18:15 51°13.636 2°56.018 128.8 -999 236 -999
2012-04-24 10:18:19 51°13.636 2°56.018 128.8 -999 164 -999
2012-04-24 10:18:24 51°13.635 2°56.018 128.7 -999 212 -999
2012-04-24 10:18:29 51°13.635 2°56.018 128.7 -999 288 -999
2012-04-24 10:18:34 51°13.635 2°56.018 128.7 -999 261 -999
2012-04-24 10:18:39 51°13.636 2°56.018 128.7 -999 231 -999
2012-04-24 10:18:44 51°13.636 2°56.018 128.6 -999 174 -999
2012-04-24 10:18:50 51°13.636 2°56.018 128.6 -999 180 -999
2012-04-24 10:18:54 51°13.636 2°56.018 128.6 -999 216 -999
2012-04-24 10:18:59 51°13.636 2°56.018 128.7 -999 141 -999
2012-04-24 10:19:04 51°13.636 2°56.018 128.7 -999 85 -999
2012-04-24 10:19:09 51°13.637 2°56.018 128.7 -999 130 -999
2012-04-24 10:19:14 51°13.637 2°56.018 128.7 -999 228 -999
2012-04-24 10:19:19 51°13.637 2°56.019 128.7 -999 138 -999
2012-04-24 10:19:24 51°13.637 2°56.019 128.7 -999 161 -999
2012-04-24 10:19:29 51°13.637 2°56.019 128.7 -999 261 -999
2012-04-24 10:19:35 51°13.636 2°56.019 128.7 -999 159 -999
2012-04-24 10:19:40 51°13.636 2°56.019 128.7 -999 309 -999
2012-04-24 10:19:44 51°13.636 2°56.019 128.7 -999 154 -999
2012-04-24 10:19:50 51°13.636 2°56.019 128.7 -999 184 -999
2012-04-24 10:19:54 51°13.636 2°56.019 128.7 -999 94 -999
2012-04-24 10:19:59 51°13.637 2°56.019 128.7 -999 114 -999
2012-04-24 10:20:04 51°13.637 2°56.019 128.6 -999 135 -999
2012-04-24 10:20:09 51°13.636 2°56.019 128.6 -999 44 -999
2012-04-24 10:20:15 51°13.636 2°56.019 128.6 -999 106 -999
2012-04-24 10:20:20 51°13.636 2°56.019 128.5 -999 117 -999
2012-04-24 10:20:24 51°13.636 2°56.019 128.4 -999 93 -999
2012-04-24 10:20:29 51°13.636 2°56.019 128.3 -999 205 -999
2012-04-24 10:20:34 51°13.636 2°56.019 128.1 -999 199 7.6
2012-04-24 10:20:39 51°13.636 2°56.019 128.1 -999 67 -999
2012-04-24 10:20:44 51°13.636 2°56.019 128.1 -999 119 -999
2012-04-24 10:20:49 51°13.636 2°56.019 128.1 -999 212 -999
2012-04-24 10:20:53 51°13.636 2°56.019 128.1 -999 252 -999
2012-04-24 10:21:00 51°13.636 2°56.019 128.1 -999 93 -999
2012-04-24 10:21:05 51°13.636 2°56.019 128.1 -999 178 7.6
2012-04-24 10:21:09 51°13.636 2°56.019 128.1 -999 250 7.6
2012-04-24 10:21:14 51°13.636 2°56.019 128.1 -999 293 7.6
2012-04-24 10:21:19 51°13.636 2°56.019 128.1 -999 217 7.6
2012-04-24 10:21:24 51°13.636 2°56.019 128.1 -999 215 7.6
2012-04-24 10:21:29 51°13.636 2°56.019 128.1 -999 189 7.6
2012-04-24 10:21:33 51°13.636 2°56.019 128.1 -999 165 7.6
2012-04-24 10:21:38 51°13.636 2°56.019 128.1 -999 224 7.6
2012-04-24 10:21:43 51°13.636 2°56.019 128.1 -999 220 5.7
2012-04-24 10:21:48 51°13.636 2°56.019 128.1 -999 221 7.6
2012-04-24 10:21:53 51°13.636 2°56.019 128.1 -999 249 -999
2012-04-24 10:21:59 51°13.636 2°56.019 128.1 -999 169 -999
2012-04-24 10:22:04 51°13.637 2°56.019 128.1 -999 276 -999
2012-04-24 10:22:09 51°13.637 2°56.019 128.1 -999 230 -999
2012-04-24 10:22:14 51°13.637 2°56.019 128.1 -999 234 -999
2012-04-24 10:22:20 51°13.637 2°56.019 128.3 -999 239 -999
2012-04-24 10:22:24 51°13.637 2°56.019 128.5 -999 244 -999
2012-04-24 10:22:29 51°13.637 2°56.019 128.6 -999 213 -999
2012-04-24 10:22:34 51°13.637 2°56.019 128.6 -999 173 -999
2012-04-24 10:22:39 51°13.637 2°56.019 128.7 -999 133 -999
2012-04-24 10:22:44 51°13.637 2°56.019 128.8 -999 92 -999
2012-04-24 10:22:49 51°13.637 2°56.019 128.8 -999 22 -999
2012-04-24 10:22:54 51°13.637 2°56.019 128.8 -999 158 -999
2012-04-24 10:23:00 51°13.637 2°56.019 128.8 -999 129 -999
2012-04-24 10:23:05 51°13.637 2°56.019 128.8 -999 104 -999
2012-04-24 10:23:10 51°13.637 2°56.019 128.8 -999 118 -999
2012-04-24 10:23:14 51°13.637 2°56.019 128.8 -999 218 -999
2012-04-24 10:23:20 51°13.637 2°56.019 128.8 -999 33 -999
2012-04-24 10:23:25 51°13.637 2°56.019 128.8 -999 291 -999
2012-04-24 10:23:30 51°13.637 2°56.019 128.7 -999 14 -999
2012-04-24 10:23:34 51°13.637 2°56.019 128.6 -999 188 -999
2012-04-24 10:23:40 51°13.637 2°56.019 128.6 -999 140 -999
2012-04-24 10:23:45 51°13.637 2°56.019 128.6 -999 169 -999
2012-04-24 10:23:50 51°13.637 2°56.019 128.6 -999 105 -999
2012-04-24 10:23:54 51°13.637 2°56.019 128.6 -999 120 -999
2012-04-24 10:23:59 51°13.637 2°56.019 128.6 -999 276 -999
2012-04-24 10:24:05 51°13.637 2°56.019 128.6 -999 284 -999
2012-04-24 10:24:10 51°13.637 2°56.018 128.6 -999 282 -999
2012-04-24 10:24:14 51°13.637 2°56.018 128.6 -999 257 -999
2012-04-24 10:24:19 51°13.637 2°56.018 128.6 -999 40 -999
2012-04-24 10:24:24 51°13.636 2°56.018 128.6 -999 97 -999
2012-04-24 10:24:30 51°13.635 2°56.018 128.6 -999 189 -999
2012-04-24 10:24:34 51°13.635 2°56.018 128.6 -999 236 -999
2012-04-24 10:24:39 51°13.635 2°56.018 128.6 -999 169 -999
2012-04-24 10:24:45 51°13.635 2°56.018 128.6 -999 219 -999
2012-04-24 10:24:50 51°13.635 2°56.018 128.6 -999 218 -999
2012-04-24 10:24:55 51°13.635 2°56.018 128.6 -999 233 -999
2012-04-24 10:24:59 51°13.635 2°56.018 128.6 -999 210 -999
2012-04-24 10:25:05 51°13.635 2°56.018 128.6 -999 237 -999
2012-04-24 10:25:10 51°13.635 2°56.018 128.6 -999 288 -999
2012-04-24 10:25:15 51°13.635 2°56.018 128.6 -999 307 -999
2012-04-24 10:25:19 51°13.636 2°56.018 128.6 -999 244 -999
2012-04-24 10:25:25 51°13.636 2°56.018 128.7 -999 237 -999
2012-04-24 10:25:29 51°13.636 2°56.018 128.7 -999 178 -999
2012-04-24 10:25:34 51°13.636 2°56.018 128.8 -999 258 -999
2012-04-24 10:25:39 51°13.636 2°56.017 128.8 -999 248 -999
2012-04-24 10:25:44 51°13.636 2°56.017 128.9 -999 246 -999
2012-04-24 10:25:49 51°13.636 2°56.017 129 -999 219 7.7
2012-04-24 10:25:55 51°13.636 2°56.017 129.2 -999 226 7.7
2012-04-24 10:26:00 51°13.636 2°56.017 129.3 -999 263 7.7
2012-04-24 10:26:04 51°13.636 2°56.017 129.6 -999 244 7.7
2012-04-24 10:26:09 51°13.636 2°56.017 129.8 -999 246 -999
2012-04-24 10:26:14 51°13.636 2°56.017 130 -999 250 -999
2012-04-24 10:26:19 51°13.636 2°56.017 130 -999 223 7.7
2012-04-24 10:26:24 51°13.636 2°56.017 130.2 -999 149 -999
2012-04-24 10:26:29 51°13.636 2°56.017 130.3 -999 153 -999
2012-04-24 10:26:34 51°13.636 2°56.017 130.4 -999 148 -999
2012-04-24 10:26:39 51°13.636 2°56.017 130.4 -999 51 -999
2012-04-24 10:26:44 51°13.636 2°56.017 130.4 -999 96 -999
2012-04-24 10:26:49 51°13.636 2°56.017 130.4 -999 156 -999
2012-04-24 10:26:55 51°13.636 2°56.017 130.4 -999 304 -999
2012-04-24 10:27:00 51°13.636 2°56.017 130.4 -999 136 -999
2012-04-24 10:27:05 51°13.636 2°56.017 130.3 -999 159 -999
2012-04-24 10:27:09 51°13.636 2°56.017 130.3 -999 209 7.7
2012-04-24 10:27:15 51°13.636 2°56.017 130.3 -999 276 -999
2012-04-24 10:27:20 51°13.636 2°56.017 130.3 -999 241 -999
2012-04-24 10:27:24 51°13.636 2°56.017 130.3 -999 236 -999
2012-04-24 10:27:29 51°13.637 2°56.017 130.4 -999 265 -999
2012-04-24 10:27:34 51°13.637 2°56.017 130.5 -999 94 -999
2012-04-24 10:27:39 51°13.637 2°56.017 130.6 -999 81 -999
2012-04-24 10:27:44 51°13.637 2°56.018 130.6 -999 99 -999
2012-04-24 10:27:50 51°13.637 2°56.018 130.6 -999 76 -999
2012-04-24 10:27:54 51°13.637 2°56.018 130.5 -999 85 -999
2012-04-24 10:27:59 51°13.637 2°56.018 130.4 -999 71 7.7
2012-04-24 10:28:05 51°13.637 2°56.018 130.2 -999 66 7.7
2012-04-24 10:28:09 51°13.636 2°56.018 130 -999 67 7.7
2012-04-24 10:28:14 51°13.635 2°56.018 130 -999 67 -999
2012-04-24 10:28:19 51°13.635 2°56.018 129.8 -999 83 -999
2012-04-24 10:28:24 51°13.636 2°56.018 129.6 -999 143 7.7
2012-04-24 10:28:29 51°13.636 2°56.018 129.5 -999 73 -999
2012-04-24 10:28:35 51°13.636 2°56.018 129.4 -999 5 -999
2012-04-24 10:28:39 51°13.636 2°56.018 129.3 -999 51 7.7
2012-04-24 10:28:45 51°13.636 2°56.018 129.2 -999 128 -999
2012-04-24 10:28:50 51°13.636 2°56.018 129.1 -999 116 -999
2012-04-24 10:28:55 51°13.636 2°56.018 129 -999 9 -999
2012-04-24 10:28:59 51°13.636 2°56.018 128.9 -999 37 -999
2012-04-24 10:29:05 51°13.636 2°56.018 128.8 -999 119 -999
2012-04-24 10:29:10 51°13.636 2°56.018 128.8 -999 245 -999
2012-04-24 10:29:15 51°13.635 2°56.018 128.7 -999 263 -999
2012-04-24 10:29:19 51°13.635 2°56.018 128.7 -999 337 -999
2012-04-24 10:29:24 51°13.635 2°56.018 128.7 -999 225 -999
2012-04-24 10:29:29 51°13.636 2°56.018 128.7 -999 225 -999
2012-04-24 10:29:35 51°13.636 2°56.018 128.7 -999 66 -999
2012-04-24 10:29:39 51°13.636 2°56.018 128.7 -999 19 -999
2012-04-24 10:29:44 51°13.636 2°56.018 128.7 -999 102 -999
2012-04-24 10:29:49 51°13.636 2°56.018 128.6 -999 63 -999
2012-04-24 10:29:54 51°13.636 2°56.018 128.6 -999 357 -999
2012-04-24 10:29:59 51°13.636 2°56.018 128.6 -999 215 -999
2012-04-24 10:30:05 51°13.635 2°56.018 128.5 -999 240 -999
2012-04-24 10:30:09 51°13.636 2°56.018 128.5 -999 310 -999
2012-04-24 10:30:15 51°13.636 2°56.018 128.5 -999 19 7.7
2012-04-24 10:30:20 51°13.636 2°56.018 128.5 -999 171 -999
2012-04-24 10:30:24 51°13.635 2°56.018 128.5 -999 193 -999
2012-04-24 10:30:30 51°13.635 2°56.018 128.5 -999 1 -999
2012-04-24 10:30:34 51°13.635 2°56.018 128.5 -999 156 -999
2012-04-24 10:30:39 51°13.635 2°56.018 128.5 -999 240 -999
2012-04-24 10:30:44 51°13.636 2°56.018 128.4 -999 19 -999
2012-04-24 10:30:50 51°13.636 2°56.018 128.4 -999 73 -999
2012-04-24 10:30:54 51°13.636 2°56.018 128.2 -999 177 -999
2012-04-24 10:30:59 51°13.636 2°56.017 128.1 -999 228 -999
2012-04-24 10:31:04 51°13.636 2°56.017 128.1 -999 218 -999
2012-04-24 10:31:10 51°13.636 2°56.017 128.1 -999 291 -999
2012-04-24 10:31:15 51°13.636 2°56.017 128.1 -999 172 -999
2012-04-24 10:31:19 51°13.636 2°56.017 128.1 -999 182 -999
2012-04-24 10:31:24 51°13.636 2°56.017 128.1 -999 80 -999
2012-04-24 10:31:29 51°13.636 2°56.017 128.1 -999 272 -999
2012-04-24 10:31:34 51°13.636 2°56.017 128.1 -999 267 -999
2012-04-24 10:31:39 51°13.635 2°56.017 128.1 -999 170 -999
2012-04-24 10:31:44 51°13.635 2°56.017 128.1 -999 138 -999
2012-04-24 10:31:49 51°13.636 2°56.017 128.1 -999 117 -999
2012-04-24 10:31:54 51°13.636 2°56.017 128.1 -999 322 -999
2012-04-24 10:31:59 51°13.636 2°56.018 128.1 -999 156 -999
2012-04-24 10:32:05 51°13.636 2°56.018 128.1 -999 200 -999
2012-04-24 10:32:09 51°13.636 2°56.018 128.1 -999 205 -999
2012-04-24 10:32:15 51°13.636 2°56.018 128.1 -999 31 -999
2012-04-24 10:32:20 51°13.636 2°56.018 128.1 -999 61 -999
2012-04-24 10:32:25 51°13.636 2°56.018 128.1 -999 68 -999
2012-04-24 10:32:29 51°13.636 2°56.018 127.9 0.1 71 7.7
2012-04-24 10:32:35 51°13.636 2°56.018 127.3 0.1 75 -999
2012-04-24 10:32:40 51°13.636 2°56.018 126.1 0.1 185 -999
2012-04-24 10:32:45 51°13.635 2°56.018 124.5 -999 159 -999
2012-04-24 10:32:49 51°13.635 2°56.018 123.9 0.1 186 -999
2012-04-24 10:32:55 51°13.636 2°56.018 123.1 0.1 198 -999
2012-04-24 10:33:00 51°13.636 2°56.017 122.4 0.1 202 -999
2012-04-24 10:33:05 51°13.636 2°56.017 121.6 0.1 182 -999
2012-04-24 10:33:09 51°13.636 2°56.017 120.7 0.1 187 -999
2012-04-24 10:33:14 51°13.636 2°56.017 119.8 0.1 189 -999
2012-04-24 10:33:19 51°13.636 2°56.017 118.8 0.1 196 -999
2012-04-24 10:33:24 51°13.636 2°56.017 117.9 0.1 185 -999
2012-04-24 10:33:29 51°13.636 2°56.017 116.9 0.1 198 -999
2012-04-24 10:33:34 51°13.636 2°56.017 116.1 0.1 205 -999
2012-04-24 10:33:39 51°13.636 2°56.017 115.1 0.1 198 -999
2012-04-24 10:33:44 51°13.635 2°56.017 114.1 0.1 197 -999
2012-04-24 10:33:49 51°13.635 2°56.017 113.2 0.1 186 -999
2012-04-24 10:33:54 51°13.635 2°56.017 112.2 0.1 184 -999
2012-04-24 10:33:59 51°13.635 2°56.017 111.2 0.1 190 -999
2012-04-24 10:34:04 51°13.635 2°56.017 110.4 0.1 259 -999
2012-04-24 10:34:09 51°13.635 2°56.016 109.3 0.3 277 -999
2012-04-24 10:34:13 51°13.635 2°56.015 108.7 0.8 291 7.9
2012-04-24 10:34:19 51°13.635 2°56.012 108.4 1.3 286 -999
2012-04-24 10:34:25 51°13.637 2°56.008 108.2 1.7 292 -999
2012-04-24 10:34:30 51°13.638 2°56.003 108.4 2.2 289 -999
2012-04-24 10:34:34 51°13.639 2°55.999 108.9 2.5 292 -999
2012-04-24 10:34:39 51°13.64 2°55.993 108.9 2.9 291 -999
2012-04-24 10:34:44 51°13.642 2°55.987 109 3.1 292 -999
2012-04-24 10:34:50 51°13.644 2°55.979 109 3.3 292 -999
2012-04-24 10:34:54 51°13.645 2°55.973 109.1 3.5 293 -999
2012-04-24 10:34:59 51°13.647 2°55.966 109.7 3.7 292 -999
2012-04-24 10:35:05 51°13.65 2°55.956 110.5 3.9 292 -999
2012-04-24 10:35:09 51°13.651 2°55.95 111.1 4.1 292 -999
2012-04-24 10:35:14 51°13.654 2°55.941 111.5 4.2 292 -999
2012-04-24 10:35:19 51°13.656 2°55.932 111.9 4.4 291 -999
2012-04-24 10:35:25 51°13.659 2°55.92 112.1 4.6 291 -999
2012-04-24 10:35:30 51°13.661 2°55.911 112.5 4.6 291 -999
2012-04-24 10:35:34 51°13.663 2°55.903 113 4.7 291 -999
2012-04-24 10:35:39 51°13.665 2°55.893 113.6 4.8 292 -999
2012-04-24 10:35:44 51°13.668 2°55.883 114.8 4.8 292 -999
2012-04-24 10:35:49 51°13.67 2°55.874 115.7 4.8 292 -999
2012-04-24 10:35:54 51°13.673 2°55.864 116.9 4.9 293 -999
2012-04-24 10:35:59 51°13.676 2°55.854 118.6 4.9 294 -999
2012-04-24 10:36:04 51°13.679 2°55.844 120.5 5 297 -999
2012-04-24 10:36:09 51°13.683 2°55.834 123.6 5.1 300 -999
2012-04-24 10:36:14 51°13.687 2°55.824 126.4 5.2 303 -999
2012-04-24 10:36:19 51°13.691 2°55.815 128.7 5.4 306 -999
2012-04-24 10:36:25 51°13.696 2°55.803 130.7 5.4 308 -999
2012-04-24 10:36:30 51°13.701 2°55.794 132.4 5.5 310 -999
2012-04-24 10:36:35 51°13.707 2°55.785 134.1 5.5 311 -999
2012-04-24 10:36:39 51°13.711 2°55.778 135.2 5.4 313 -999
2012-04-24 10:36:44 51°13.716 2°55.77 136.3 5.4 314 -999
2012-04-24 10:36:49 51°13.722 2°55.761 136.9 5.4 315 -999
2012-04-24 10:36:54 51°13.727 2°55.753 137.5 5.4 316 -999
2012-04-24 10:36:59 51°13.732 2°55.744 138 5.5 316 -999
2012-04-24 10:37:05 51°13.739 2°55.734 138.3 5.5 318 -999
2012-04-24 10:37:10 51°13.745 2°55.726 139.4 5.6 318 -999
2012-04-24 10:37:15 51°13.75 2°55.718 140.6 5.6 320 -999
2012-04-24 10:37:19 51°13.755 2°55.712 141.8 5.6 321 -999
2012-04-24 10:37:24 51°13.761 2°55.704 142.9 5.7 322 -999
2012-04-24 10:37:30 51°13.769 2°55.695 143.5 5.7 322 -999
2012-04-24 10:37:34 51°13.774 2°55.689 144.5 5.7 323 -999
2012-04-24 10:37:39 51°13.78 2°55.681 145.2 5.7 323 -999
2012-04-24 10:37:44 51°13.786 2°55.674 146.2 5.7 324 -999
2012-04-24 10:37:49 51°13.793 2°55.667 147.2 5.7 325 -999
2012-04-24 10:37:54 51°13.8 2°55.66 148.5 5.7 327 -999
2012-04-24 10:37:59 51°13.806 2°55.653 150.4 5.6 328 -999
2012-04-24 10:38:04 51°13.813 2°55.647 152.3 5.6 330 -999
2012-04-24 10:38:10 51°13.821 2°55.64 154.3 5.5 333 -999
2012-04-24 10:38:15 51°13.828 2°55.635 156.4 5.4 335 -999
2012-04-24 10:38:19 51°13.833 2°55.632 158.3 5.2 337 -999
2012-04-24 10:38:25 51°13.841 2°55.627 160.3 5 338 -999
2012-04-24 10:38:30 51°13.847 2°55.623 161.9 4.9 340 -999
2012-04-24 10:38:34 51°13.852 2°55.62 163.5 4.7 340 -999
2012-04-24 10:38:40 51°13.859 2°55.616 164.5 4.7 342 -999
2012-04-24 10:38:45 51°13.866 2°55.613 166 4.7 343 -999
2012-04-24 10:38:50 51°13.871 2°55.611 168.4 4.4 344 -999
2012-04-24 10:38:54 51°13.876 2°55.609 170.1 4.2 345 -999
2012-04-24 10:39:00 51°13.883 2°55.607 171.6 4.1 349 -999
2012-04-24 10:39:04 51°13.887 2°55.606 174.1 3.9 351 -999
2012-04-24 10:39:09 51°13.892 2°55.605 177.7 3.8 354 -999
2012-04-24 10:39:14 51°13.897 2°55.604 180.8 3.7 356 -999
2012-04-24 10:39:20 51°13.903 2°55.604 183.2 3.6 -999 -999
2012-04-24 10:39:25 51°13.908 2°55.605 186.3 3.5 3 -999
2012-04-24 10:39:29 51°13.911 2°55.605 189.7 3.4 6 -999
2012-04-24 10:39:34 51°13.916 2°55.606 192.4 3.3 9 -999
2012-04-24 10:39:39 51°13.921 2°55.608 195 3.3 11 -999
2012-04-24 10:39:45 51°13.926 2°55.609 197.3 3.3 14 -999
2012-04-24 10:39:49 51°13.93 2°55.611 199.5 3.2 15 -999
2012-04-24 10:39:55 51°13.935 2°55.614 201.8 3.3 17 -999
2012-04-24 10:39:59 51°13.938 2°55.616 204.2 3.2 20 -999
2012-04-24 10:40:04 51°13.942 2°55.618 206.2 3.1 21 -999
2012-04-24 10:40:10 51°13.947 2°55.622 208.7 3 24 -999
2012-04-24 10:40:15 51°13.95 2°55.624 211.6 2.9 26 -999
2012-04-24 10:40:20 51°13.953 2°55.627 213.8 2.8 28 -999
2012-04-24 10:40:24 51°13.956 2°55.63 215.6 2.7 30 -999
2012-04-24 10:40:30 51°13.96 2°55.634 217.7 2.5 32 -999
2012-04-24 10:40:35 51°13.963 2°55.636 219.5 2.4 32 -999
2012-04-24 10:40:40 51°13.965 2°55.639 221.4 2.1 34 -999
2012-04-24 10:40:44 51°13.967 2°55.641 223 1.9 33 -999
2012-04-24 10:40:49 51°13.968 2°55.642 224.6 1.3 33 -999
2012-04-24 10:40:55 51°13.97 2°55.643 227.1 0.9 24 -999
2012-04-24 10:40:59 51°13.97 2°55.643 231 0.5 6 -999
2012-04-24 10:41:04 51°13.971 2°55.643 235.1 0.4 322 -999
2012-04-24 10:41:09 51°13.971 2°55.642 238.9 0.6 274 -999
2012-04-24 10:41:14 51°13.971 2°55.64 244.3 0.9 268 -999
2012-04-24 10:41:20 51°13.97 2°55.636 251.5 1.3 266 -999
2012-04-24 10:41:25 51°13.97 2°55.633 257.8 1.7 270 -999
2012-04-24 10:41:29 51°13.97 2°55.629 264.5 2 273 -999
2012-04-24 10:41:34 51°13.971 2°55.624 270.1 2.3 279 -999
2012-04-24 10:41:39 51°13.972 2°55.619 277.3 2.7 285 -999
2012-04-24 10:41:44 51°13.973 2°55.613 284.5 3 291 -999
2012-04-24 10:41:49 51°13.975 2°55.606 289.8 3.3 296 9.9
2012-04-24 10:41:54 51°13.978 2°55.599 294.9 3.7 302 9.9
2012-04-24 10:41:59 51°13.981 2°55.592 301.1 4.2 307 9.9
2012-04-24 10:42:04 51°13.986 2°55.584 308.3 4.8 311 -999
2012-04-24 10:42:10 51°13.992 2°55.574 313.6 5.4 316 -999
2012-04-24 10:42:14 51°13.997 2°55.567 317.2 5.8 318 -999
2012-04-24 10:42:19 51°14.004 2°55.558 320.2 6.3 321 -999
2012-04-24 10:42:24 51°14.011 2°55.549 323.1 6.7 323 -999
2012-04-24 10:42:30 51°14.021 2°55.539 326 7.1 326 -999
2012-04-24 10:42:34 51°14.028 2°55.531 327.4 7.4 326 -999
2012-04-24 10:42:39 51°14.037 2°55.522 328.1 7.6 326 -999
2012-04-24 10:42:44 51°14.046 2°55.512 329.4 8 328 -999
2012-04-24 10:42:49 51°14.055 2°55.503 329.7 8.3 327 -999
2012-04-24 10:42:54 51°14.065 2°55.493 329.6 8.5 328 -999
2012-04-24 10:42:59 51°14.076 2°55.483 330 8.7 328 -999
2012-04-24 10:43:04 51°14.086 2°55.472 330.1 8.9 328 -999
2012-04-24 10:43:09 51°14.097 2°55.461 330 9 327 -999
2012-04-24 10:43:15 51°14.11 2°55.448 330.2 9.2 328 -999
2012-04-24 10:43:19 51°14.118 2°55.439 330.1 9.4 327 -999
2012-04-24 10:43:24 51°14.13 2°55.428 329.8 9.5 329 -999
2012-04-24 10:43:29 51°14.141 2°55.417 330.5 9.7 329 -999
2012-04-24 10:43:34 51°14.153 2°55.406 330.9 9.8 327 -999
2012-04-24 10:43:39 51°14.164 2°55.394 330.3 9.9 328 -999
2012-04-24 10:43:44 51°14.176 2°55.382 329.6 10 326 -999
2012-04-24 10:43:49 51°14.188 2°55.37 329.3 10.1 329 -999
2012-04-24 10:43:54 51°14.2 2°55.358 329.6 10.1 327 -999
2012-04-24 10:43:59 51°14.212 2°55.347 330.3 10.2 330 -999
2012-04-24 10:44:04 51°14.224 2°55.335 331.8 10.3 330 -999
2012-04-24 10:44:10 51°14.239 2°55.321 331.8 10.4 329 -999
2012-04-24 10:44:15 51°14.252 2°55.309 331.7 10.5 329 -999
2012-04-24 10:44:20 51°14.264 2°55.297 331.7 10.5 329 -999
2012-04-24 10:44:24 51°14.274 2°55.287 331.4 10.6 328 -999
2012-04-24 10:44:29 51°14.287 2°55.275 330.8 10.7 328 -999
2012-04-24 10:44:34 51°14.3 2°55.263 331.1 10.8 329 -999
2012-04-24 10:44:39 51°14.312 2°55.25 331.1 10.9 327 -999
2012-04-24 10:44:44 51°14.325 2°55.237 330.4 11.1 328 -999
2012-04-24 10:44:49 51°14.338 2°55.224 330.4 11.1 327 -999
2012-04-24 10:44:55 51°14.354 2°55.207 329.9 11.2 327 -999
2012-04-24 10:45:00 51°14.367 2°55.194 329.1 11.3 327 -999
2012-04-24 10:45:04 51°14.378 2°55.183 330 11.3 328 -999
2012-04-24 10:45:09 51°14.391 2°55.169 330.4 11.4 325 -999
2012-04-24 10:45:15 51°14.406 2°55.151 328.5 11.5 324 -999
2012-04-24 10:45:19 51°14.417 2°55.139 327.2 11.6 324 -999
2012-04-24 10:45:24 51°14.43 2°55.125 327.3 11.6 325 -999
2012-04-24 10:45:29 51°14.443 2°55.11 327.6 11.6 325 9.9
2012-04-24 10:45:34 51°14.457 2°55.095 328.2 11.7 326 -999
2012-04-24 10:45:39 51°14.47 2°55.08 328.5 11.8 324 -999
2012-04-24 10:45:44 51°14.484 2°55.065 327.4 11.8 324 -999
2012-04-24 10:45:49 51°14.496 2°55.049 326.1 11.9 322 -999
2012-04-24 10:45:54 51°14.51 2°55.033 325.5 11.9 322 -999
2012-04-24 10:45:59 51°14.522 2°55.016 324.9 11.9 320 10.6
2012-04-24 10:46:04 51°14.535 2°54.998 324.3 11.8 319 11.2
2012-04-24 10:46:09 51°14.547 2°54.981 323.8 12 319 11.9
2012-04-24 10:46:14 51°14.56 2°54.964 323.6 12.1 321 12.1
2012-04-24 10:46:18 51°14.57 2°54.951 324.9 12.1 321 12.1
2012-04-24 10:46:24 51°14.586 2°54.93 326.7 12.1 321 11.9
2012-04-24 10:46:28 51°14.596 2°54.916 327.1 12.1 320 11.9
2012-04-24 10:46:34 51°14.612 2°54.897 327.3 12 323 11.8
2012-04-24 10:46:39 51°14.625 2°54.88 328.9 12 321 11.8
2012-04-24 10:46:44 51°14.638 2°54.863 328.9 12.1 322 11.5
2012-04-24 10:46:49 51°14.651 2°54.847 328.6 12.1 323 11.5
2012-04-24 10:46:54 51°14.664 2°54.83 329.5 12.1 322 11.4
2012-04-24 10:46:59 51°14.678 2°54.814 329.4 12.1 321 11.4
2012-04-24 10:47:03 51°14.688 2°54.802 328.5 12.1 322 11.5
2012-04-24 10:47:08 51°14.702 2°54.786 328.9 12 323 11.4
2012-04-24 10:47:13 51°14.715 2°54.77 329.3 12 322 11.4
2012-04-24 10:47:18 51°14.728 2°54.754 328.9 12 322 11.4
2012-04-24 10:47:23 51°14.742 2°54.737 328 12.1 321 11.3
2012-04-24 10:47:27 51°14.752 2°54.724 327.3 12.1 321 11.4
2012-04-24 10:47:32 51°14.765 2°54.707 327 12 321 11.5
2012-04-24 10:47:38 51°14.781 2°54.687 327 12 319 11.4
2012-04-24 10:47:43 51°14.793 2°54.669 326.1 12.1 317 11.5
2012-04-24 10:47:48 51°14.806 2°54.651 323.7 12.1 317 11.5
2012-04-24 10:47:53 51°14.818 2°54.634 323.2 12.1 320 11.6
2012-04-24 10:47:58 51°14.831 2°54.617 325 12 321 11.6
2012-04-24 10:48:03 51°14.844 2°54.601 326.8 12 322 11.6
2012-04-24 10:48:07 51°14.855 2°54.588 327.8 12 323 11.8
2012-04-24 10:48:12 51°14.868 2°54.572 328.3 12 323 11.8
2012-04-24 10:48:17 51°14.881 2°54.556 328.6 12 325 11.6
2012-04-24 10:48:22 51°14.895 2°54.541 331.1 11.9 327 11.6
2012-04-24 10:48:27 51°14.909 2°54.527 332.3 11.9 327 11.7
2012-04-24 10:48:32 51°14.923 2°54.514 333 11.8 330 11.6
2012-04-24 10:48:36 51°14.935 2°54.505 334.7 11.8 334 11.4
2012-04-24 10:48:41 51°14.95 2°54.495 339.9 11.7 338 11.5
2012-04-24 10:48:46 51°14.965 2°54.487 343.4 11.6 341 11.5
2012-04-24 10:48:51 51°14.981 2°54.479 347.2 11.6 343 11.4
2012-04-24 10:48:56 51°14.996 2°54.473 348.7 11.6 345 11.3
2012-04-24 10:49:00 51°15.009 2°54.467 350.3 11.6 347 11.3
2012-04-24 10:49:06 51°15.027 2°54.461 352.5 11.6 349 11.3
2012-04-24 10:49:11 51°15.043 2°54.458 355 11.5 352 11.2
2012-04-24 10:49:16 51°15.059 2°54.456 357.3 11.5 354 11
2012-04-24 10:49:20 51°15.072 2°54.455 0.7 11.4 357 10.7
2012-04-24 10:49:26 51°15.091 2°54.455 3 11.3 1 10.2
2012-04-24 10:49:31 51°15.106 2°54.457 6.5 11.2 6 9.9
2012-04-24 10:49:36 51°15.121 2°54.462 10.8 11.1 10 9.7
2012-04-24 10:49:41 51°15.136 2°54.468 15.3 11 15 9.5
2012-04-24 10:49:46 51°15.15 2°54.476 19.7 10.9 19 9
2012-04-24 10:49:51 51°15.164 2°54.486 23.9 10.9 23 8.9
2012-04-24 10:49:56 51°15.178 2°54.496 27.5 10.9 26 9
2012-04-24 10:50:01 51°15.191 2°54.507 30.1 10.9 28 8.9
2012-04-24 10:50:06 51°15.204 2°54.521 32.7 10.9 34 9.1
2012-04-24 10:50:11 51°15.216 2°54.535 36.9 10.9 36 9.1
2012-04-24 10:50:16 51°15.228 2°54.55 39.6 10.9 39 9.1
2012-04-24 10:50:20 51°15.237 2°54.563 42.7 11 41 9.1
2012-04-24 10:50:26 51°15.25 2°54.582 43.8 11 42 9.1
2012-04-24 10:50:31 51°15.262 2°54.598 44.5 11 41 9.2
2012-04-24 10:50:36 51°15.273 2°54.614 43.9 11 40 9.3
2012-04-24 10:50:41 51°15.285 2°54.629 42.6 11 39 9.2
2012-04-24 10:50:46 51°15.297 2°54.644 42.5 11.1 39 9.1
2012-04-24 10:50:51 51°15.309 2°54.659 41.7 11 38 9.2
2012-04-24 10:50:56 51°15.321 2°54.674 41.2 11 39 9.1
2012-04-24 10:51:01 51°15.334 2°54.689 41.2 11.1 37 9.1
2012-04-24 10:51:06 51°15.346 2°54.703 40.6 11 36 9.3
2012-04-24 10:51:11 51°15.359 2°54.716 39 11 33 9.3
2012-04-24 10:51:16 51°15.372 2°54.728 36.9 11 30 9.3
2012-04-24 10:51:20 51°15.383 2°54.738 34.2 11.1 28 9.1
2012-04-24 10:51:26 51°15.399 2°54.751 31.7 11.1 27 9.2
2012-04-24 10:51:31 51°15.413 2°54.764 31.6 11.1 30 9.3
2012-04-24 10:51:36 51°15.426 2°54.776 33.5 11.1 32 9.2
2012-04-24 10:51:41 51°15.439 2°54.789 35 11.2 32 9.3
2012-04-24 10:51:46 51°15.452 2°54.802 35.2 11.2 31 9.4
2012-04-24 10:51:51 51°15.465 2°54.815 34.9 11.1 32 9.5
2012-04-24 10:51:56 51°15.479 2°54.828 35.3 11.2 31 9.4
2012-04-24 10:52:00 51°15.489 2°54.838 35.4 11.2 31 9.4
2012-04-24 10:52:06 51°15.506 2°54.853 34.4 11.2 29 9.5
2012-04-24 10:52:11 51°15.519 2°54.865 32.7 11.2 29 9.5
2012-04-24 10:52:16 51°15.533 2°54.877 32.4 11.2 27 9.5
2012-04-24 10:52:20 51°15.545 2°54.885 31.3 11.2 28 9.6
2012-04-24 10:52:26 51°15.561 2°54.899 31.3 11.2 27 9.6
2012-04-24 10:52:31 51°15.575 2°54.91 30.9 11.2 28 9.6
2012-04-24 10:52:36 51°15.589 2°54.921 30.5 11.3 26 9.5
2012-04-24 10:52:41 51°15.602 2°54.933 31.4 11.2 30 9.6
2012-04-24 10:52:46 51°15.616 2°54.945 32.5 11.3 29 9.8
2012-04-24 10:52:51 51°15.629 2°54.959 33.5 11.3 33 9.8
2012-04-24 10:52:56 51°15.643 2°54.971 34.9 11.3 31 9.8
2012-04-24 10:53:01 51°15.655 2°54.986 36 11.3 36 9.7
2012-04-24 10:53:06 51°15.668 2°55 38 11.3 35 9.7
2012-04-24 10:53:11 51°15.681 2°55.015 39.2 11.3 38 10
2012-04-24 10:53:16 51°15.693 2°55.03 40.3 11.3 37 9.9
2012-04-24 10:53:21 51°15.705 2°55.047 41.5 11.3 40 9.8
2012-04-24 10:53:26 51°15.717 2°55.063 42.9 11.3 41 10
2012-04-24 10:53:31 51°15.728 2°55.08 45.1 11.3 45 10
2012-04-24 10:53:36 51°15.739 2°55.097 46.9 11.3 43 9.9
2012-04-24 10:53:41 51°15.75 2°55.116 48 11.3 47 10
2012-04-24 10:53:46 51°15.761 2°55.133 48.5 11.3 45 9.9
2012-04-24 10:53:51 51°15.771 2°55.152 49.6 11.3 49 10
2012-04-24 10:53:56 51°15.782 2°55.17 50.2 11.3 46 10.1
2012-04-24 10:54:00 51°15.79 2°55.185 50.2 11.3 48 10
2012-04-24 10:54:06 51°15.803 2°55.206 50.6 11.3 46 10
2012-04-24 10:54:11 51°15.814 2°55.225 50 11.3 46 10
2012-04-24 10:54:16 51°15.825 2°55.242 48.9 11.3 44 10.1
2012-04-24 10:54:20 51°15.834 2°55.256 47.5 11.2 43 10
2012-04-24 10:54:26 51°15.848 2°55.276 46.5 11.2 43 10.1
2012-04-24 10:54:31 51°15.86 2°55.292 45.5 11.3 41 10.3
2012-04-24 10:54:36 51°15.872 2°55.308 44.2 11.3 41 10.2
2012-04-24 10:54:41 51°15.884 2°55.325 44.1 11.2 41 10.2
2012-04-24 10:54:46 51°15.895 2°55.341 44.4 11.2 42 10.1
2012-04-24 10:54:51 51°15.907 2°55.358 45.3 11.2 42 10.3
2012-04-24 10:54:56 51°15.918 2°55.375 45.8 11.2 44 10.2
2012-04-24 10:55:01 51°15.929 2°55.392 46.7 11.2 44 10.4
2012-04-24 10:55:05 51°15.938 2°55.406 47.8 11.2 44 10.4
2012-04-24 10:55:11 51°15.952 2°55.425 46.4 11.2 41 10.3
2012-04-24 10:55:16 51°15.964 2°55.441 44.8 11.2 40 10.4
2012-04-24 10:55:21 51°15.977 2°55.457 43 11.2 39 10.4
2012-04-24 10:55:25 51°15.987 2°55.469 42.2 11.3 38 10.3
2012-04-24 10:55:31 51°16.001 2°55.487 42 11.2 38 10.2
2012-04-24 10:55:36 51°16.014 2°55.502 42 11.2 38 10.3
2012-04-24 10:55:40 51°16.024 2°55.514 41.2 11.2 36 10.4
2012-04-24 10:55:45 51°16.036 2°55.529 40.4 11.3 36 10.5
2012-04-24 10:55:51 51°16.052 2°55.546 39.6 11.3 35 10.4
2012-04-24 10:55:56 51°16.065 2°55.56 38.6 11.2 34 10.4
2012-04-24 10:56:00 51°16.075 2°55.571 38.8 11.2 35 10.4
2012-04-24 10:56:06 51°16.09 2°55.589 40.2 11.2 37 10.4
2012-04-24 10:56:11 51°16.102 2°55.604 40.3 11.2 35 10.5
2012-04-24 10:56:16 51°16.115 2°55.618 39.2 11.2 35 10.5
2012-04-24 10:56:20 51°16.125 2°55.63 39.2 11.2 36 10.4
2012-04-24 10:56:25 51°16.138 2°55.644 39.9 11.2 38 10.6
2012-04-24 10:56:31 51°16.152 2°55.663 41.1 11.2 39 10.6
2012-04-24 10:56:36 51°16.164 2°55.679 42.5 11.2 41 10.5
2012-04-24 10:56:40 51°16.173 2°55.692 44.3 11.2 42 10.5
2012-04-24 10:56:45 51°16.185 2°55.709 45.1 11.2 42 10.6
2012-04-24 10:56:51 51°16.199 2°55.729 45.6 11.2 42 10.6
2012-04-24 10:56:56 51°16.21 2°55.746 45.5 11.2 43 10.5
2012-04-24 10:57:00 51°16.219 2°55.76 46 11.2 44 10.5
2012-04-24 10:57:05 51°16.23 2°55.777 47.4 11.2 45 10.5
2012-04-24 10:57:11 51°16.243 2°55.798 47.5 11.2 44 10.5
2012-04-24 10:57:16 51°16.255 2°55.815 47.6 11.2 45 10.4
2012-04-24 10:57:21 51°16.266 2°55.832 46.8 11.2 42 10.4
2012-04-24 10:57:25 51°16.275 2°55.845 45.7 11.2 44 10.4
2012-04-24 10:57:31 51°16.289 2°55.866 45.9 11.2 43 10.3
2012-04-24 10:57:36 51°16.299 2°55.884 46.4 11.2 45 10.4
2012-04-24 10:57:40 51°16.308 2°55.897 46.9 11.1 45 10.3
2012-04-24 10:57:45 51°16.319 2°55.915 47.3 11.1 45 10.4
2012-04-24 10:57:51 51°16.333 2°55.935 46.9 11.1 43 10.4
2012-04-24 10:57:56 51°16.344 2°55.952 46.4 11.1 44 10.3
2012-04-24 10:58:00 51°16.353 2°55.965 45.2 11.1 42 10.3
2012-04-24 10:58:06 51°16.366 2°55.985 45.1 11.1 45 10.1
2012-04-24 10:58:11 51°16.376 2°56.003 47.8 11 48 10.3
2012-04-24 10:58:16 51°16.386 2°56.022 50.2 11 50 10
2012-04-24 10:58:20 51°16.394 2°56.037 51.9 11 52 10
2012-04-24 10:58:26 51°16.404 2°56.061 54 11 56 10
2012-04-24 10:58:31 51°16.412 2°56.082 56.7 11.1 58 10.2
2012-04-24 10:58:36 51°16.42 2°56.103 58.8 11 59 10.3
2012-04-24 10:58:40 51°16.425 2°56.121 61.2 11.1 64 10.4
2012-04-24 10:58:45 51°16.433 2°56.142 62.2 11.1 59 10.1
2012-04-24 10:58:51 51°16.441 2°56.169 62.1 11.1 64 10
2012-04-24 10:58:56 51°16.449 2°56.191 63.2 11.1 63 10.1
2012-04-24 10:59:00 51°16.454 2°56.209 64.4 11.2 66 10
2012-04-24 10:59:05 51°16.461 2°56.231 64.7 11.2 64 10
2012-04-24 10:59:10 51°16.467 2°56.254 65.7 11.2 68 9.9
2012-04-24 10:59:16 51°16.475 2°56.28 65.4 11.2 62 9.9
2012-04-24 10:59:20 51°16.48 2°56.299 65.4 11.2 68 10
2012-04-24 10:59:25 51°16.487 2°56.321 66 11.2 63 10
2012-04-24 10:59:31 51°16.494 2°56.348 65.4 11.3 67 10.1
2012-04-24 10:59:36 51°16.501 2°56.37 66 11.2 64 10
2012-04-24 10:59:40 51°16.506 2°56.389 65.8 11.2 67 9.9
2012-04-24 10:59:45 51°16.513 2°56.411 66.1 11.2 64 10
2012-04-24 10:59:51 51°16.521 2°56.438 64.7 11.3 63 9.9
2012-04-24 10:59:56 51°16.528 2°56.46 64.7 11.2 63 9.8
2012-04-24 11:00:00 51°16.535 2°56.477 63.2 11.2 60 9.9
2012-04-24 11:00:06 51°16.544 2°56.503 62.5 11.2 61 9.8
2012-04-24 11:00:11 51°16.552 2°56.524 61.4 11.2 59 9.8
2012-04-24 11:00:16 51°16.56 2°56.546 60.7 11.2 57 9.9
2012-04-24 11:00:20 51°16.568 2°56.562 58.6 11.2 56 9.8
2012-04-24 11:00:26 51°16.578 2°56.586 58.1 11.2 55 9.8
2012-04-24 11:00:31 51°16.587 2°56.606 56.6 11.3 53 9.8
2012-04-24 11:00:36 51°16.597 2°56.626 55.3 11.3 52 9.9
2012-04-24 11:00:40 51°16.605 2°56.642 54.2 11.2 52 9.8
2012-04-24 11:00:46 51°16.616 2°56.665 54 11.3 52 9.8
2012-04-24 11:00:51 51°16.626 2°56.685 53.6 11.3 52 9.8
2012-04-24 11:00:56 51°16.636 2°56.704 53.4 11.3 50 9.9
2012-04-24 11:01:00 51°16.644 2°56.72 52.7 11.3 51 9.8
2012-04-24 11:01:05 51°16.654 2°56.739 52.7 11.3 50 9.7
2012-04-24 11:01:11 51°16.666 2°56.762 51.2 11.4 49 9.8
2012-04-24 11:01:16 51°16.677 2°56.779 49.8 11.3 46 9.9
2012-04-24 11:01:21 51°16.688 2°56.798 49 11.3 48 9.7
2012-04-24 11:01:25 51°16.697 2°56.812 48.7 11.3 46 9.8
2012-04-24 11:01:30 51°16.708 2°56.831 48.4 11.4 47 9.8
2012-04-24 11:01:36 51°16.721 2°56.853 48.6 11.4 47 9.7
2012-04-24 11:01:41 51°16.731 2°56.871 48.9 11.4 48 9.7
2012-04-24 11:01:45 51°16.74 2°56.886 49.3 11.4 47 9.7
2012-04-24 11:01:51 51°16.752 2°56.909 49.7 11.4 50 9.7
2012-04-24 11:01:56 51°16.763 2°56.928 50.1 11.4 49 9.7
2012-04-24 11:02:00 51°16.77 2°56.945 52.5 11.4 55 9.7
2012-04-24 11:02:05 51°16.779 2°56.965 54.6 11.4 54 9.7
2012-04-24 11:02:11 51°16.79 2°56.991 56.7 11.4 57 9.7
2012-04-24 11:02:16 51°16.798 2°57.012 57.8 11.4 57 9.8
2012-04-24 11:02:20 51°16.805 2°57.029 59 11.5 60 9.8
2012-04-24 11:02:26 51°16.814 2°57.056 60.4 11.5 59 10
2012-04-24 11:02:31 51°16.822 2°57.078 61.3 11.5 60 9.9
2012-04-24 11:02:36 51°16.831 2°57.099 61 11.5 58 10
2012-04-24 11:02:40 51°16.837 2°57.117 59.9 11.5 59 10
2012-04-24 11:02:46 51°16.847 2°57.143 59.9 11.5 58 9.9
2012-04-24 11:02:51 51°16.856 2°57.164 58.8 11.4 57 9.8
2012-04-24 11:02:56 51°16.864 2°57.185 58.8 11.5 57 9.8
2012-04-24 11:03:00 51°16.871 2°57.202 58.4 11.5 58 9.8
2012-04-24 11:03:05 51°16.879 2°57.224 58.7 11.5 60 10
2012-04-24 11:03:11 51°16.888 2°57.251 61.1 11.5 62 10
2012-04-24 11:03:16 51°16.896 2°57.273 62.5 11.5 62 9.8
2012-04-24 11:03:20 51°16.901 2°57.292 63.7 11.5 65 9.9
2012-04-24 11:03:26 51°16.909 2°57.32 65 11.5 65 9.8
2012-04-24 11:03:31 51°16.916 2°57.343 66.1 11.5 66 9.8
2012-04-24 11:03:36 51°16.923 2°57.366 66.1 11.6 65 9.8
2012-04-24 11:03:40 51°16.928 2°57.385 66.1 11.5 67 9.9
2012-04-24 11:03:45 51°16.935 2°57.408 66.9 11.4 65 9.6
2012-04-24 11:03:51 51°16.943 2°57.435 65.8 11.4 63 9.6
2012-04-24 11:03:56 51°16.95 2°57.457 64.4 11.4 63 9.8
2012-04-24 11:04:01 51°16.958 2°57.479 63 11.4 61 9.6
2012-04-24 11:04:05 51°16.964 2°57.497 61.8 11.4 60 9.6
2012-04-24 11:04:11 51°16.974 2°57.522 59.8 11.4 58 9.5
2012-04-24 11:04:16 51°16.982 2°57.544 59.8 11.4 60 9.7
2012-04-24 11:04:20 51°16.989 2°57.561 59.4 11.4 57 9.5
2012-04-24 11:04:25 51°16.998 2°57.582 58.3 11.3 58 9.5
2012-04-24 11:04:31 51°17.008 2°57.607 58.5 11.4 57 9.3
2012-04-24 11:04:36 51°17.017 2°57.628 58 11.4 57 9.4
2012-04-24 11:04:40 51°17.024 2°57.645 58 11.3 57 9.3
2012-04-24 11:04:46 51°17.034 2°57.67 57.9 11.3 58 9.3
2012-04-24 11:04:51 51°17.042 2°57.691 58.3 11.3 58 9.1
2012-04-24 11:04:56 51°17.05 2°57.713 59.6 11.4 59 9.3
2012-04-24 11:05:00 51°17.056 2°57.731 60.9 11.4 62 9.2
2012-04-24 11:05:06 51°17.065 2°57.758 62.8 11.3 63 9.2
2012-04-24 11:05:11 51°17.072 2°57.78 64 11.3 64 9.2
2012-04-24 11:05:16 51°17.078 2°57.803 65.1 11.3 66 9.1
2012-04-24 11:05:20 51°17.084 2°57.821 65.9 11.4 66 9.1
2012-04-24 11:05:25 51°17.09 2°57.844 66.6 11.3 66 9
2012-04-24 11:05:31 51°17.097 2°57.872 66.5 11.3 67 9.1
2012-04-24 11:05:36 51°17.104 2°57.894 67.2 11.3 64 9.2
2012-04-24 11:05:40 51°17.11 2°57.912 65 11.3 64 9.1
2012-04-24 11:05:45 51°17.117 2°57.935 64.3 11.4 62 9.1
2012-04-24 11:05:51 51°17.126 2°57.961 63.5 11.3 63 9.1
2012-04-24 11:05:56 51°17.134 2°57.983 63.5 11.3 61 9
2012-04-24 11:06:00 51°17.14 2°58.001 62.2 11.3 60 9.1
2012-04-24 11:06:05 51°17.148 2°58.022 61.1 11.3 59 9.1
2012-04-24 11:06:11 51°17.158 2°58.047 59.7 11.3 58 9
2012-04-24 11:06:16 51°17.167 2°58.068 59.4 11.3 57 8.9
2012-04-24 11:06:20 51°17.173 2°58.085 58.9 11.3 58 8.8
2012-04-24 11:06:26 51°17.184 2°58.11 58.6 11.3 56 8.8
2012-04-24 11:06:31 51°17.192 2°58.131 57.8 11.2 57 8.9
2012-04-24 11:06:36 51°17.201 2°58.152 57.8 11.2 56 8.8
2012-04-24 11:06:40 51°17.208 2°58.169 58 11.2 57 8.8
2012-04-24 11:06:46 51°17.218 2°58.193 58.2 11.2 56 8.7
2012-04-24 11:06:51 51°17.226 2°58.215 58.1 11.2 58 8.8
2012-04-24 11:06:55 51°17.233 2°58.231 58.5 11.2 58 8.8
2012-04-24 11:07:00 51°17.241 2°58.252 59.1 11.3 58 8.8
2012-04-24 11:07:06 51°17.251 2°58.277 59.1 11.2 57 8.7
2012-04-24 11:07:11 51°17.259 2°58.299 59.1 11.2 59 8.8
2012-04-24 11:07:16 51°17.268 2°58.32 59.2 11.2 58 8.8
2012-04-24 11:07:20 51°17.274 2°58.337 59.6 11.2 60 8.8
2012-04-24 11:07:26 51°17.283 2°58.363 60.3 11.3 59 8.9
2012-04-24 11:07:31 51°17.291 2°58.384 60.3 11.3 60 8.7
2012-04-24 11:07:36 51°17.299 2°58.406 60.7 11.3 61 8.8
2012-04-24 11:07:40 51°17.305 2°58.424 62.4 11.3 63 8.7
2012-04-24 11:07:45 51°17.311 2°58.447 64 11.3 65 8.8
2012-04-24 11:07:51 51°17.32 2°58.473 64.7 11.3 63 8.8
2012-04-24 11:07:56 51°17.327 2°58.496 64.3 11.3 64 8.8
2012-04-24 11:08:00 51°17.332 2°58.514 64.4 11.2 63 8.7
2012-04-24 11:08:05 51°17.339 2°58.536 64.4 11.3 64 8.8
2012-04-24 11:08:11 51°17.348 2°58.562 64 11.3 63 8.9
2012-04-24 11:08:16 51°17.355 2°58.585 63.9 11.3 63 8.7
2012-04-24 11:08:20 51°17.36 2°58.603 63.8 11.3 64 8.8
2012-04-24 11:08:25 51°17.368 2°58.625 63.8 11.3 62 8.8
2012-04-24 11:08:31 51°17.376 2°58.651 63.8 11.2 62 8.8
2012-04-24 11:08:36 51°17.384 2°58.672 62.4 11.2 59 8.8
2012-04-24 11:08:40 51°17.391 2°58.688 60.4 11 54 8.7
2012-04-24 11:08:46 51°17.402 2°58.711 57.7 10.9 52 8.9
2012-04-24 11:08:51 51°17.414 2°58.727 51 11 42 8.8
2012-04-24 11:08:56 51°17.425 2°58.745 46.7 11 45 8.9
2012-04-24 11:09:00 51°17.434 2°58.757 45.5 11.1 42 8.6
2012-04-24 11:09:06 51°17.447 2°58.778 45.4 11 44 8.3
2012-04-24 11:09:11 51°17.459 2°58.794 45.1 11.1 41 8.5
2012-04-24 11:09:16 51°17.471 2°58.81 44.2 11 41 8.6
2012-04-24 11:09:20 51°17.48 2°58.822 42.7 11.1 39 8.5
2012-04-24 11:09:26 51°17.495 2°58.84 41.1 11.1 38 8.4
2012-04-24 11:09:31 51°17.507 2°58.856 40.9 11.2 41 8.4
2012-04-24 11:09:36 51°17.518 2°58.872 42.3 11.2 42 8.5
2012-04-24 11:09:40 51°17.527 2°58.886 44 11.2 45 8.3
2012-04-24 11:09:45 51°17.538 2°58.904 46.1 11.2 47 8.5
2012-04-24 11:09:51 51°17.55 2°58.926 48.5 11.1 50 8.3
2012-04-24 11:09:56 51°17.56 2°58.946 51.3 11.1 52 8.4
2012-04-24 11:10:01 51°17.569 2°58.966 53.6 11.2 55 8.2
2012-04-24 11:10:05 51°17.577 2°58.981 55.2 11.2 53 8
2012-04-24 11:10:11 51°17.588 2°59.005 55.2 11.1 53 8.2
2012-04-24 11:10:16 51°17.597 2°59.025 54.7 11.1 53 8.2
2012-04-24 11:10:20 51°17.604 2°59.04 54.3 11.2 51 6
2012-04-24 11:10:25 51°17.614 2°59.059 53.1 11.2 50 8.3
2012-04-24 11:10:31 51°17.627 2°59.081 51.2 11.1 47 8.1
2012-04-24 11:10:36 51°17.638 2°59.099 49.7 11.1 48 8
2012-04-24 11:10:40 51°17.647 2°59.113 48.3 11.2 46 8
2012-04-24 11:10:45 51°17.657 2°59.13 47.8 11.1 45 8.1
2012-04-24 11:10:51 51°17.671 2°59.15 46.3 11.1 43 8
2012-04-24 11:10:56 51°17.682 2°59.167 45.7 11.1 42 8.1
2012-04-24 11:11:00 51°17.692 2°59.18 44.1 11.1 41 8.1
2012-04-24 11:11:06 51°17.706 2°59.199 43.4 11.2 40 8.1
2012-04-24 11:11:11 51°17.718 2°59.214 42.1 11.2 37 8
2012-04-24 11:11:16 51°17.73 2°59.229 40.6 11.1 37 8.1
2012-04-24 11:11:21 51°17.743 2°59.243 39.3 11.2 35 8
2012-04-24 11:11:25 51°17.753 2°59.255 37.9 11.2 35 8.1
2012-04-24 11:11:31 51°17.769 2°59.271 37.3 11.2 34 5.9
2012-04-24 11:11:36 51°17.782 2°59.285 36.9 11.2 34 7.9
2012-04-24 11:11:40 51°17.792 2°59.296 36.3 11.2 33 8
2012-04-24 11:11:45 51°17.805 2°59.309 35.9 11.2 34 7.9
2012-04-24 11:11:51 51°17.82 2°59.326 36.5 11.2 35 7.9
2012-04-24 11:11:56 51°17.833 2°59.341 37.6 11.2 36 7.9
2012-04-24 11:12:00 51°17.843 2°59.353 38.8 11.2 38 7.9
2012-04-24 11:12:05 51°17.855 2°59.369 40.2 11.3 39 7.9
2012-04-24 11:12:11 51°17.869 2°59.389 41.8 11.2 42 7.9
2012-04-24 11:12:16 51°17.88 2°59.406 43.8 11.2 44 8
2012-04-24 11:12:20 51°17.889 2°59.42 45.7 11.2 46 8
2012-04-24 11:12:26 51°17.901 2°59.442 47.6 11.2 48 -999
2012-04-24 11:12:31 51°17.911 2°59.461 50 11.3 50 7.9
2012-04-24 11:12:36 51°17.921 2°59.481 51.7 11.3 51 8.1
2012-04-24 11:12:40 51°17.929 2°59.496 52.3 11.2 51 8.1
2012-04-24 11:12:46 51°17.941 2°59.519 52.6 11.2 50 8.1
2012-04-24 11:12:51 51°17.951 2°59.537 51.6 11.2 49 7.9
2012-04-24 11:12:56 51°17.961 2°59.556 51.1 11.2 49 8
2012-04-24 11:13:00 51°17.97 2°59.571 50.3 11.2 47 8.1
2012-04-24 11:13:06 51°17.983 2°59.592 48.7 11.3 47 8
2012-04-24 11:13:11 51°17.994 2°59.61 48.7 11.2 45 8.1
2012-04-24 11:13:15 51°18.003 2°59.624 47.2 11.3 46 8.1
2012-04-24 11:13:20 51°18.013 2°59.642 47.8 11.2 45 8
2012-04-24 11:13:26 51°18.027 2°59.663 46.9 11.2 45 8
2012-04-24 11:13:31 51°18.038 2°59.68 46.5 11.2 45 8.1
2012-04-24 11:13:36 51°18.049 2°59.698 46.5 11.3 44 8
2012-04-24 11:13:41 51°18.06 2°59.715 46.5 11.2 45 8.1
2012-04-24 11:13:45 51°18.069 2°59.729 46.7 11.2 45 6
2012-04-24 11:13:51 51°18.082 2°59.751 47.2 11.2 46 8
2012-04-24 11:13:56 51°18.093 2°59.768 47.3 11.2 46 7.9
2012-04-24 11:14:00 51°18.102 2°59.783 47.8 11.2 46 6
2012-04-24 11:14:05 51°18.113 2°59.8 47.6 11.2 46 8.2
2012-04-24 11:14:11 51°18.126 2°59.822 47.5 11.2 46 6
2012-04-24 11:14:16 51°18.137 2°59.84 47.4 11.2 46 8.2
2012-04-24 11:14:20 51°18.145 2°59.854 47.4 11.2 46 8.3
2012-04-24 11:14:25 51°18.156 2°59.872 47.6 11.2 46 6
2012-04-24 11:14:31 51°18.169 2°59.894 48.5 11.2 47 8.2
2012-04-24 11:14:36 51°18.179 2°59.912 48.9 11.2 48 8.2
2012-04-24 11:14:40 51°18.188 2°59.927 49.2 11.2 48 8.1
2012-04-24 11:14:45 51°18.198 2°59.945 49.4 11.2 47 8.3
2012-04-24 11:14:51 51°18.211 2°59.967 49.2 11.2 48 8.2
2012-04-24 11:14:56 51°18.221 2°59.985 49.4 11.2 48 8.2
2012-04-24 11:15:00 51°18.23 2°60 49.3 11.2 47 8.2
2012-04-24 11:15:05 51°18.24 3°0.018 49.2 11.1 48 8.2
2012-04-24 11:15:10 51°18.25 3°0.036 49.6 11.2 48 8.2
2012-04-24 11:15:16 51°18.263 3°0.058 49.7 11.2 49 8.2
2012-04-24 11:15:21 51°18.273 3°0.077 50.4 11.1 49 8.2
2012-04-24 11:15:25 51°18.281 3°0.092 51 11.1 50 8.2
2012-04-24 11:15:31 51°18.292 3°0.115 52 11.2 51 8.3
2012-04-24 11:15:36 51°18.302 3°0.135 52.5 11.1 52 8.3
2012-04-24 11:15:40 51°18.309 3°0.15 53.4 11.1 52 8.4
2012-04-24 11:15:45 51°18.319 3°0.17 53.5 11.1 52 8.3
2012-04-24 11:15:51 51°18.33 3°0.193 53.4 11.1 53 8.3
2012-04-24 11:15:56 51°18.339 3°0.213 53.6 11.1 53 8.4
2012-04-24 11:16:00 51°18.347 3°0.228 53.8 11.1 54 8.5
2012-04-24 11:16:06 51°18.358 3°0.252 54.1 11.1 53 8.4
2012-04-24 11:16:11 51°18.367 3°0.272 54.5 11.1 54 8.2
2012-04-24 11:16:16 51°18.376 3°0.292 54.7 11.2 53 8.3
2012-04-24 11:16:20 51°18.384 3°0.307 54.2 11.1 53 8.3
2012-04-24 11:16:26 51°18.395 3°0.331 53.9 11.1 53 8.3
2012-04-24 11:16:31 51°18.404 3°0.35 54.1 11.1 53 8.3
2012-04-24 11:16:36 51°18.413 3°0.37 54 11.2 53 8.3
2012-04-24 11:16:40 51°18.421 3°0.386 53.8 11.2 53 8.3
2012-04-24 11:16:45 51°18.43 3°0.405 53.5 11.2 52 8.4
2012-04-24 11:16:51 51°18.442 3°0.429 53.4 11.1 52 8.4
2012-04-24 11:16:56 51°18.451 3°0.448 53.5 11.2 52 8.3
2012-04-24 11:17:00 51°18.459 3°0.464 53.4 11.2 51 8.4
2012-04-24 11:17:06 51°18.471 3°0.486 52 11.2 51 8.4
2012-04-24 11:17:11 51°18.481 3°0.505 51.7 11.2 50 8.5
2012-04-24 11:17:16 51°18.491 3°0.524 50.8 11.2 51 8.4
2012-04-24 11:17:20 51°18.499 3°0.54 51.8 11.2 52 8.5
2012-04-24 11:17:25 51°18.508 3°0.56 53.5 11.2 54 8.3
2012-04-24 11:17:31 51°18.519 3°0.584 54.4 11.2 54 8.4
2012-04-24 11:17:36 51°18.528 3°0.604 55.2 11.2 55 8.3
2012-04-24 11:17:41 51°18.537 3°0.625 56 11.3 56 8.5
2012-04-24 11:17:45 51°18.544 3°0.641 56.2 11.3 55 8.4
2012-04-24 11:17:51 51°18.554 3°0.666 56.2 11.3 56 8.4
2012-04-24 11:17:56 51°18.563 3°0.687 56.5 11.3 57 8.5
2012-04-24 11:18:00 51°18.569 3°0.704 58.1 11.3 59 8.5
2012-04-24 11:18:05 51°18.578 3°0.725 58.8 11.3 58 8.6
2012-04-24 11:18:11 51°18.587 3°0.751 59.3 11.3 60 8.6
2012-04-24 11:18:16 51°18.595 3°0.773 60 11.3 60 8.5
2012-04-24 11:18:20 51°18.601 3°0.79 60.3 11.3 61 8.6
2012-04-24 11:18:26 51°18.61 3°0.816 61.1 11.3 61 8.4
2012-04-24 11:18:31 51°18.618 3°0.838 61 11.4 60 8.5
2012-04-24 11:18:36 51°18.626 3°0.86 60.3 11.4 60 8.6
2012-04-24 11:18:40 51°18.633 3°0.877 60.3 11.3 60 8.6
2012-04-24 11:18:45 51°18.641 3°0.899 60.3 11.3 60 8.4
2012-04-24 11:18:51 51°18.65 3°0.925 60.3 11.4 61 8.5
2012-04-24 11:18:56 51°18.658 3°0.947 60.4 11.4 60 8.6
2012-04-24 11:19:00 51°18.664 3°0.964 60.3 11.3 60 8.5
2012-04-24 11:19:05 51°18.672 3°0.986 60.3 11.4 59 8.6
2012-04-24 11:19:11 51°18.682 3°1.011 59.4 11.4 59 8.4
2012-04-24 11:19:16 51°18.69 3°1.033 59.4 11.4 59 8.4
2012-04-24 11:19:20 51°18.697 3°1.051 59.4 11.4 59 8.4
2012-04-24 11:19:25 51°18.705 3°1.072 59.3 11.4 58 8.4
2012-04-24 11:19:31 51°18.715 3°1.098 58.9 11.4 59 8.6
2012-04-24 11:19:36 51°18.724 3°1.119 58.9 11.4 57 8.5
2012-04-24 11:19:40 51°18.73 3°1.136 58.5 11.4 58 8.5
2012-04-24 11:19:46 51°18.741 3°1.162 58.4 11.4 58 8.5
2012-04-24 11:19:51 51°18.749 3°1.183 58.6 11.4 58 8.4
2012-04-24 11:19:56 51°18.757 3°1.204 58.6 11.4 58 8.4
2012-04-24 11:20:00 51°18.764 3°1.221 58.1 11.3 57 8.4
2012-04-24 11:20:06 51°18.774 3°1.247 58.1 11.3 58 8.3
2012-04-24 11:20:11 51°18.783 3°1.268 58.1 11.3 57 8.4
2012-04-24 11:20:15 51°18.79 3°1.284 57.6 11.3 56 8.4
2012-04-24 11:20:20 51°18.798 3°1.305 57.3 11.3 56 8.3
2012-04-24 11:20:26 51°18.809 3°1.33 56.9 11.3 55 8.4
2012-04-24 11:20:31 51°18.818 3°1.35 55.8 11.2 54 8.4
2012-04-24 11:20:36 51°18.827 3°1.37 55 11.3 53 8.4
2012-04-24 11:20:41 51°18.837 3°1.39 53.7 11.3 52 8.3
2012-04-24 11:20:46 51°18.846 3°1.41 53.8 11.3 53 8.4
2012-04-24 11:20:51 51°18.857 3°1.429 52.3 11.3 50 8.4
2012-04-24 11:20:56 51°18.866 3°1.449 52.7 11.3 53 8.4
2012-04-24 11:21:00 51°18.874 3°1.465 53.2 11.3 52 8.5
2012-04-24 11:21:06 51°18.885 3°1.488 53.1 11.3 52 8.5
2012-04-24 11:21:11 51°18.895 3°1.508 52.7 11.3 52 8.4
2012-04-24 11:21:16 51°18.904 3°1.528 52.9 11.3 52 8.4
2012-04-24 11:21:20 51°18.912 3°1.543 53.1 11.3 52 8.5
2012-04-24 11:21:25 51°18.922 3°1.563 53 11.3 52 8.5
2012-04-24 11:21:31 51°18.933 3°1.587 53.8 11.3 55 8.5
2012-04-24 11:21:36 51°18.942 3°1.607 54.5 11.3 55 8.5
2012-04-24 11:21:40 51°18.949 3°1.624 55.2 11.3 55 8.3
2012-04-24 11:21:45 51°18.958 3°1.644 56 11.3 56 8.3
2012-04-24 11:21:51 51°18.968 3°1.669 56.7 11.2 56 8.5
2012-04-24 11:21:56 51°18.978 3°1.689 56.3 11.2 54 8.4
2012-04-24 11:22:01 51°18.987 3°1.709 55.2 11.2 52 8.4
2012-04-24 11:22:05 51°18.995 3°1.725 53.8 11.2 53 8.4
2012-04-24 11:22:11 51°19.006 3°1.749 54.2 11.3 53 8.6
2012-04-24 11:22:16 51°19.015 3°1.769 54.3 11.3 53 8.6
2012-04-24 11:22:21 51°19.025 3°1.789 54.2 11.3 52 8.6
2012-04-24 11:22:26 51°19.035 3°1.807 52.9 11.2 50 8.4
2012-04-24 11:22:31 51°19.044 3°1.827 52.7 11.2 53 8.5
2012-04-24 11:22:36 51°19.055 3°1.846 52.5 11.1 48 8.5
2012-04-24 11:22:40 51°19.062 3°1.861 51.1 11.1 51 8.4
2012-04-24 11:22:46 51°19.074 3°1.883 51.3 11.1 49 8.3
2012-04-24 11:22:51 51°19.084 3°1.902 50.9 11.1 50 8.4
2012-04-24 11:22:56 51°19.095 3°1.921 50.6 11.1 50 8.4
2012-04-24 11:23:00 51°19.102 3°1.936 51.4 11.1 51 8.6
2012-04-24 11:23:06 51°19.114 3°1.959 51.5 11.1 51 8.5
2012-04-24 11:23:11 51°19.124 3°1.979 52 11.2 51 8.5
2012-04-24 11:23:16 51°19.133 3°1.998 52.3 11.2 51 8.4
2012-04-24 11:23:20 51°19.141 3°2.013 52.3 11.2 53 8.6
2012-04-24 11:23:25 51°19.15 3°2.033 53.3 11.2 55 8.3
2012-04-24 11:23:31 51°19.16 3°2.058 56.1 11.2 57 8.4
2012-04-24 11:23:36 51°19.169 3°2.079 56.9 11.2 57 8.5
2012-04-24 11:23:40 51°19.175 3°2.096 58.3 11.1 59 8.4
2012-04-24 11:23:45 51°19.183 3°2.117 58.9 11.2 59 8.3
2012-04-24 11:23:50 51°19.191 3°2.138 59.7 11.1 59 8.2
2012-04-24 11:23:56 51°19.2 3°2.164 59.7 11.1 60 8.3
2012-04-24 11:24:01 51°19.208 3°2.185 60.6 11.1 61 8.4
2012-04-24 11:24:05 51°19.214 3°2.203 61 11.2 62 8.4
2012-04-24 11:24:11 51°19.223 3°2.228 61.3 11.1 61 8.3
2012-04-24 11:24:16 51°19.23 3°2.25 61.5 11.1 61 8.4
2012-04-24 11:24:20 51°19.236 3°2.268 61.5 11.2 62 8.5
2012-04-24 11:24:25 51°19.243 3°2.289 62 11.2 63 8.5
2012-04-24 11:24:31 51°19.252 3°2.316 62.5 11.1 63 8.4
2012-04-24 11:24:36 51°19.259 3°2.338 63.6 11.2 64 8.2
2012-04-24 11:24:40 51°19.264 3°2.356 64.7 11.2 65 8.3
2012-04-24 11:24:46 51°19.272 3°2.383 65.4 11.2 66 8.5
2012-04-24 11:24:51 51°19.278 3°2.406 65.7 11.2 66 8.4
2012-04-24 11:24:55 51°19.283 3°2.424 66.7 11.3 67 8.4
2012-04-24 11:25:00 51°19.289 3°2.447 66.5 11.2 65 8.3
2012-04-24 11:25:06 51°19.297 3°2.474 66.6 11.2 67 8.3
2012-04-24 11:25:11 51°19.303 3°2.497 66.8 11.3 65 8.3
2012-04-24 11:25:16 51°19.309 3°2.52 66.1 11.3 67 8.4
2012-04-24 11:25:20 51°19.314 3°2.538 67 11.3 67 8.4
2012-04-24 11:25:26 51°19.323 3°2.565 66.6 11.4 64 8.2
2012-04-24 11:25:31 51°19.328 3°2.589 66.1 11.3 68 8.3
2012-04-24 11:25:36 51°19.335 3°2.611 66.7 11.4 65 8.4
2012-04-24 11:25:40 51°19.341 3°2.63 66.1 11.3 65 8.3
2012-04-24 11:25:45 51°19.347 3°2.652 65.5 11.3 65 8.3
2012-04-24 11:25:51 51°19.355 3°2.68 65.3 11.4 65 8.4
2012-04-24 11:25:56 51°19.362 3°2.702 65 11.4 64 8.3
2012-04-24 11:26:00 51°19.368 3°2.721 65.1 11.4 65 8.3
2012-04-24 11:26:05 51°19.375 3°2.743 65 11.3 65 8.4
2012-04-24 11:26:10 51°19.381 3°2.766 65.3 11.4 66 8.5
2012-04-24 11:26:16 51°19.389 3°2.794 65.7 11.4 65 8.3
2012-04-24 11:26:21 51°19.396 3°2.817 65.2 11.4 64 8.4
2012-04-24 11:26:25 51°19.401 3°2.834 64.6 11.4 64 8.5
2012-04-24 11:26:31 51°19.41 3°2.861 64.6 11.4 64 8.4
2012-04-24 11:26:36 51°19.417 3°2.884 64.5 11.4 63 8.4
2012-04-24 11:26:40 51°19.423 3°2.902 63.6 11.4 63 8.3
2012-04-24 11:26:45 51°19.43 3°2.925 63.8 11.4 64 8.4
2012-04-24 11:26:51 51°19.438 3°2.952 64.1 11.4 63 8.3
2012-04-24 11:26:56 51°19.445 3°2.974 64.1 11.4 64 8.4
2012-04-24 11:27:00 51°19.451 3°2.992 63.9 11.4 63 8.4
2012-04-24 11:27:06 51°19.46 3°3.019 63.5 11.4 63 8.4
2012-04-24 11:27:11 51°19.467 3°3.041 63.3 11.4 62 8.4
2012-04-24 11:27:16 51°19.475 3°3.063 62.8 11.4 61 8.4
2012-04-24 11:27:20 51°19.482 3°3.08 61.1 11.3 58 8.4
2012-04-24 11:27:26 51°19.492 3°3.105 59.1 11.4 57 8.5
2012-04-24 11:27:31 51°19.501 3°3.126 57.5 11.3 56 8.4
2012-04-24 11:27:36 51°19.51 3°3.147 56.8 11.3 55 8.4
2012-04-24 11:27:40 51°19.517 3°3.162 55.7 11.3 54 8.4
2012-04-24 11:27:45 51°19.526 3°3.183 55.2 11.2 54 8.5
2012-04-24 11:27:51 51°19.538 3°3.206 54.3 11.2 53 8.4
2012-04-24 11:27:56 51°19.547 3°3.226 54.3 11.2 53 8.4
2012-04-24 11:28:00 51°19.554 3°3.242 54.4 11.2 54 8.4
2012-04-24 11:28:05 51°19.564 3°3.262 54.5 11.2 54 8.6
2012-04-24 11:28:11 51°19.575 3°3.286 54.3 11.2 54 8.5
2012-04-24 11:28:16 51°19.584 3°3.306 54.8 11.2 54 8.4
2012-04-24 11:28:20 51°19.592 3°3.322 54.3 11.2 53 8.4
2012-04-24 11:28:25 51°19.601 3°3.342 54.7 11.2 55 8.5
2012-04-24 11:28:31 51°19.612 3°3.366 54.7 11.2 53 8.5
2012-04-24 11:28:36 51°19.621 3°3.386 54.6 11.2 54 8.5
2012-04-24 11:28:40 51°19.629 3°3.402 55.1 11.2 55 8.4
2012-04-24 11:28:46 51°19.639 3°3.426 55.7 11.2 55 8.5
2012-04-24 11:28:51 51°19.648 3°3.446 55.7 11.2 55 8.3
2012-04-24 11:28:56 51°19.657 3°3.467 56.2 11.2 55 8.3
2012-04-24 11:29:00 51°19.664 3°3.483 56.2 11.2 54 8.3
2012-04-24 11:29:05 51°19.673 3°3.503 56 11.2 56 8.5
2012-04-24 11:29:11 51°19.684 3°3.528 56.3 11.2 55 8.5
2012-04-24 11:29:16 51°19.692 3°3.548 56.5 11.2 56 8.5
2012-04-24 11:29:20 51°19.699 3°3.564 56.5 11.3 57 8.6
2012-04-24 11:29:26 51°19.71 3°3.589 57.2 11.3 57 8.5
2012-04-24 11:29:31 51°19.719 3°3.61 57.2 11.2 56 8.3
2012-04-24 11:29:36 51°19.727 3°3.631 57.4 11.2 57 8.3
2012-04-24 11:29:41 51°19.735 3°3.651 57.6 11.2 57 8.3
2012-04-24 11:29:46 51°19.744 3°3.673 58.2 11.2 58 8.5
2012-04-24 11:29:51 51°19.752 3°3.693 58.8 11.2 58 8.3
2012-04-24 11:29:56 51°19.76 3°3.715 58.9 11.2 59 8.2
2012-04-24 11:30:00 51°19.767 3°3.732 59.2 11.2 59 8.3
2012-04-24 11:30:06 51°19.776 3°3.758 59.8 11.3 60 8.4
2012-04-24 11:30:11 51°19.784 3°3.78 60.3 11.3 61 8.3
2012-04-24 11:30:16 51°19.791 3°3.801 61.2 11.3 61 8.4
2012-04-24 11:30:20 51°19.797 3°3.819 61.5 11.3 62 8.4
2012-04-24 11:30:26 51°19.806 3°3.846 61.9 11.3 62 8.4
2012-04-24 11:30:31 51°19.813 3°3.868 62.6 11.3 62 8.3
2012-04-24 11:30:36 51°19.821 3°3.89 62.4 11.3 62 8.2
2012-04-24 11:30:40 51°19.826 3°3.908 62.4 11.3 62 8.5
2012-04-24 11:30:45 51°19.834 3°3.929 62.1 11.3 62 8.4
2012-04-24 11:30:51 51°19.843 3°3.956 62.2 11.3 61 8.3
2012-04-24 11:30:56 51°19.85 3°3.978 62.1 11.3 62 8.4
2012-04-24 11:31:01 51°19.858 3°4 61.8 11.3 62 8.4
2012-04-24 11:31:05 51°19.864 3°4.018 62.4 11.3 62 8.4
2012-04-24 11:31:11 51°19.873 3°4.044 62.1 11.3 61 8.3
2012-04-24 11:31:16 51°19.881 3°4.066 61.8 11.3 61 8.3
2012-04-24 11:31:20 51°19.887 3°4.083 61.3 11.3 60 8.3
2012-04-24 11:31:25 51°19.895 3°4.104 60.3 11.3 59 8.2
2012-04-24 11:31:31 51°19.905 3°4.13 59.6 11.2 57 8.2
2012-04-24 11:31:36 51°19.914 3°4.151 58.7 11.3 58 8.3
2012-04-24 11:31:40 51°19.92 3°4.167 58.4 11.3 57 8.4
2012-04-24 11:31:46 51°19.931 3°4.192 57.8 11.3 56 8.2
2012-04-24 11:31:51 51°19.939 3°4.213 57.4 11.3 57 8.4
2012-04-24 11:31:56 51°19.948 3°4.234 57.3 11.3 57 8.3
2012-04-24 11:32:00 51°19.955 3°4.251 57.7 11.3 57 8.3
2012-04-24 11:32:06 51°19.965 3°4.276 58.2 11.3 57 8.4
2012-04-24 11:32:11 51°19.974 3°4.297 58.2 11.3 57 8.4
2012-04-24 11:32:16 51°19.982 3°4.318 58.2 11.3 57 8.3
2012-04-24 11:32:20 51°19.989 3°4.335 57.8 11.3 56 8.4
2012-04-24 11:32:25 51°19.998 3°4.356 57.6 11.3 58 8.2
2012-04-24 11:32:31 51°20.007 3°4.382 58.4 11.3 59 -999
2012-04-24 11:32:36 51°20.015 3°4.403 59.6 11.3 60 8.2
2012-04-24 11:32:40 51°20.022 3°4.421 60.2 11.3 61 8.2
2012-04-24 11:32:45 51°20.029 3°4.443 61.1 11.3 61 8.3
2012-04-24 11:32:51 51°20.038 3°4.469 61.9 11.3 62 8.3
2012-04-24 11:32:56 51°20.046 3°4.491 62 11.3 62 8.4
2012-04-24 11:33:00 51°20.052 3°4.508 62 11.3 63 6.1
2012-04-24 11:33:05 51°20.059 3°4.531 62.6 11.3 63 8.3
2012-04-24 11:33:11 51°20.067 3°4.557 63 11.3 63 8.2
2012-04-24 11:33:16 51°20.075 3°4.58 63.4 11.3 63 8.2
2012-04-24 11:33:21 51°20.082 3°4.602 63.5 11.3 64 6
2012-04-24 11:33:25 51°20.088 3°4.62 63.8 11.3 62 6
2012-04-24 11:33:31 51°20.096 3°4.647 63.4 11.3 63 8.2
2012-04-24 11:33:36 51°20.104 3°4.668 63.4 11.3 61 8.1
2012-04-24 11:33:41 51°20.112 3°4.69 62 11.3 59 8.1
2012-04-24 11:33:45 51°20.118 3°4.707 60.4 11.4 58 8.1
2012-04-24 11:33:51 51°20.129 3°4.733 59.1 11.3 57 8.2
2012-04-24 11:33:56 51°20.138 3°4.753 58.1 11.3 56 6
2012-04-24 11:34:01 51°20.147 3°4.774 57.2 11.3 54 8.3
2012-04-24 11:34:05 51°20.154 3°4.79 55.3 11.3 53 8.2
2012-04-24 11:34:11 51°20.166 3°4.813 54.1 11.3 52 8.2
2012-04-24 11:34:16 51°20.175 3°4.833 53 11.3 54 8.3
2012-04-24 11:34:20 51°20.183 3°4.85 53.3 11.2 55 8.2
2012-04-24 11:34:25 51°20.19 3°4.872 58.2 11.3 64 8.2
2012-04-24 11:34:31 51°20.198 3°4.899 63.2 11.3 64 8.2
2012-04-24 11:34:36 51°20.205 3°4.921 64.6 11.3 65 6
2012-04-24 11:34:40 51°20.211 3°4.939 65.1 11.2 63 6
2012-04-24 11:34:46 51°20.219 3°4.966 64.8 11.3 63 8.2
2012-04-24 11:34:51 51°20.227 3°4.987 63.1 11.3 60 8.1
2012-04-24 11:34:56 51°20.235 3°5.009 61.1 11.3 59 8.1
2012-04-24 11:35:00 51°20.242 3°5.025 59.6 11.3 57 6
2012-04-24 11:35:06 51°20.252 3°5.051 57.9 11.3 57 8.3
2012-04-24 11:35:11 51°20.261 3°5.072 57.7 11.3 58 8.2
2012-04-24 11:35:16 51°20.269 3°5.093 59 11.3 59 6
2012-04-24 11:35:20 51°20.275 3°5.111 60.3 11.3 59 8
2012-04-24 11:35:25 51°20.284 3°5.132 59.7 11.3 58 8.2
2012-04-24 11:35:31 51°20.293 3°5.157 59.3 11.3 59 8
2012-04-24 11:35:36 51°20.302 3°5.179 59.6 11.3 59 8
2012-04-24 11:35:40 51°20.308 3°5.196 59.9 11.3 58 8.1
2012-04-24 11:35:46 51°20.319 3°5.221 58.8 11.3 56 8.1
2012-04-24 11:35:51 51°20.328 3°5.241 57.4 11.3 56 8.2
2012-04-24 11:35:56 51°20.337 3°5.261 55.5 11.3 52 8.1
2012-04-24 11:36:00 51°20.344 3°5.278 55.1 11.4 55 8.1
2012-04-24 11:36:06 51°20.356 3°5.302 55.2 11.4 53 8.2
2012-04-24 11:36:11 51°20.365 3°5.322 54.6 11.3 54 8.3
2012-04-24 11:36:16 51°20.375 3°5.342 54.3 11.3 53 8.2
2012-04-24 11:36:21 51°20.384 3°5.362 54.4 11.3 54 6
2012-04-24 11:36:25 51°20.392 3°5.378 54.5 11.3 54 8.2
2012-04-24 11:36:31 51°20.403 3°5.403 55.4 11.4 55 8.1
2012-04-24 11:36:36 51°20.411 3°5.424 56.2 11.3 56 8.1
2012-04-24 11:36:40 51°20.418 3°5.44 57.2 11.3 56 8.2
2012-04-24 11:36:45 51°20.427 3°5.461 57.4 11.4 57 8.2
2012-04-24 11:36:51 51°20.437 3°5.487 58.3 11.4 57 8.2
2012-04-24 11:36:56 51°20.446 3°5.508 58.2 11.4 58 8.1
2012-04-24 11:37:00 51°20.452 3°5.525 58.9 11.4 58 8.2
2012-04-24 11:37:05 51°20.461 3°5.546 59 11.4 59 8.1
2012-04-24 11:37:11 51°20.47 3°5.572 59.9 11.4 60 8.1
2012-04-24 11:37:16 51°20.478 3°5.595 60.8 11.4 61 5.9
2012-04-24 11:37:20 51°20.484 3°5.612 61.6 11.4 61 8.1
2012-04-24 11:37:25 51°20.492 3°5.634 61.8 11.4 61 8.2